Time;durP1;ratioP1;P1;durP2;ratioP2;P2;SDS_P1;SDS_P2;PMS_P1;PMS_P2;Temp;Humidity;BMP_temperature;BMP_pressure;BME280_temperature;BME280_humidity;BME280_pressure;Samples;Min_cycle;Max_cycle;Signal;HPM_P1;HPM_P2
2022/03/19 00:01:13;;;;;;;17.00;4.40;;;4.10;99.90;;;;;;5008586;28;21901;-73
2022/03/19 00:03:39;;;;;;;21.33;3.67;;;4.10;99.90;;;;;;5009741;28;20129;-74
2022/03/19 00:06:05;;;;;;;15.52;2.53;;;4.10;99.90;;;;;;4991297;28;20050;-73
2022/03/19 00:08:32;;;;;;;24.38;3.35;;;4.00;99.90;;;;;;4991966;28;20041;-74
2022/03/19 00:10:59;;;;;;;16.60;2.67;;;4.00;99.90;;;;;;5012244;28;20213;-74
2022/03/19 00:13:24;;;;;;;18.48;2.88;;;3.90;99.90;;;;;;5012184;28;20452;-74
2022/03/19 00:15:51;;;;;;;14.73;3.00;;;3.90;99.90;;;;;;5010303;28;20058;-74
2022/03/19 00:18:17;;;;;;;14.05;3.78;;;3.90;99.90;;;;;;4993532;28;20038;-74
2022/03/19 00:20:43;;;;;;;11.10;2.58;;;3.90;99.90;;;;;;4991068;28;20125;-74
2022/03/19 00:23:09;;;;;;;12.98;3.70;;;3.90;99.90;;;;;;5000589;28;20392;-74
2022/03/19 00:25:35;;;;;;;18.65;2.58;;;3.90;99.90;;;;;;5014280;28;20057;-74
2022/03/19 00:28:01;;;;;;;15.48;3.80;;;3.80;99.90;;;;;;5000619;28;20037;-74
2022/03/19 00:30:27;;;;;;;16.50;2.78;;;3.80;99.90;;;;;;5013703;28;20045;-74
2022/03/19 00:32:52;;;;;;;11.73;2.70;;;3.80;99.90;;;;;;5001392;28;20383;-74
2022/03/19 00:35:18;;;;;;;14.77;2.67;;;3.80;99.90;;;;;;5000138;28;20408;-74
2022/03/19 00:37:50;;;;;;;12.88;2.70;;;3.70;99.90;;;;;;5010429;28;20560;-74
2022/03/19 00:40:18;;;;;;;13.52;2.50;;;3.70;99.90;;;;;;5013074;28;20042;-74
2022/03/19 00:42:45;;;;;;;18.67;3.58;;;3.70;99.90;;;;;;5004476;28;20045;-74
2022/03/19 00:45:11;;;;;;;13.85;2.55;;;3.70;99.90;;;;;;5017903;28;20069;-73
2022/03/19 00:47:37;;;;;;;15.65;2.80;;;3.60;99.90;;;;;;5016228;28;20042;-74
2022/03/19 00:50:06;;;;;;;18.10;3.03;;;3.60;99.90;;;;;;4994527;28;20500;-73
2022/03/19 00:52:35;;;;;;;14.82;3.33;;;3.50;99.90;;;;;;5011900;28;20171;-74
2022/03/19 00:55:01;;;;;;;13.07;3.00;;;3.50;99.90;;;;;;4997126;28;20074;-73
2022/03/19 00:57:26;;;;;;;14.25;2.75;;;3.50;99.90;;;;;;5010812;28;20046;-74
2022/03/19 00:59:52;;;;;;;12.73;2.58;;;3.40;99.90;;;;;;5010433;28;20205;-74
2022/03/19 01:02:17;;;;;;;10.10;2.47;;;3.40;99.90;;;;;;4974503;28;20538;-74
2022/03/19 01:04:43;;;;;;;14.10;2.83;;;3.40;99.90;;;;;;5011972;28;20041;-74
2022/03/19 01:07:09;;;;;;;17.80;2.55;;;3.40;99.90;;;;;;5008985;28;20042;-74
2022/03/19 01:09:34;;;;;;;14.27;3.90;;;3.40;99.90;;;;;;4991623;28;20050;-74
2022/03/19 01:12:00;;;;;;;18.60;2.90;;;3.40;99.90;;;;;;4992809;28;20061;-74
2022/03/19 01:14:26;;;;;;;13.98;2.75;;;3.40;99.90;;;;;;5009958;28;20034;-74
2022/03/19 01:16:51;;;;;;;17.38;3.45;;;3.40;99.90;;;;;;5010267;28;20092;-74
2022/03/19 01:19:52;;;;;;;22.73;2.92;;;3.40;99.90;;;;;;4990065;28;20042;-74
2022/03/19 01:22:03;;;;;;;12.27;3.25;;;3.30;99.90;;;;;;5009208;28;20057;-73
2022/03/19 01:24:29;;;;;;;14.77;2.47;;;3.30;99.90;;;;;;5011292;28;20045;-73
2022/03/19 01:26:54;;;;;;;11.98;3.17;;;3.30;99.90;;;;;;4992476;28;20053;-73
2022/03/19 01:29:20;;;;;;;12.57;2.50;;;3.30;99.90;;;;;;5012962;28;20069;-73
2022/03/19 01:31:46;;;;;;;15.65;3.47;;;3.30;99.90;;;;;;5010052;28;20081;-74
2022/03/19 01:34:11;;;;;;;18.98;3.75;;;3.30;99.90;;;;;;5011379;28;20038;-74
2022/03/19 01:36:37;;;;;;;16.00;2.80;;;3.20;99.90;;;;;;5012511;28;20050;-74
2022/03/19 01:39:02;;;;;;;14.95;2.97;;;3.20;99.90;;;;;;5011586;28;20065;-73
2022/03/19 01:41:28;;;;;;;18.67;3.05;;;3.30;99.90;;;;;;5010594;28;20105;-73
2022/03/19 01:43:53;;;;;;;14.18;2.90;;;3.30;99.90;;;;;;5011362;28;20054;-74
2022/03/19 01:46:19;;;;;;;23.58;5.05;;;3.20;99.90;;;;;;5007059;28;20046;-74
2022/03/19 01:48:45;;;;;;;10.20;2.17;;;3.20;99.90;;;;;;4995055;28;20600;-74
2022/03/19 01:51:10;;;;;;;15.85;2.90;;;3.20;99.90;;;;;;4989667;28;20046;-74
2022/03/19 01:53:36;;;;;;;11.68;2.97;;;3.20;99.90;;;;;;4986652;28;20502;-74
2022/03/19 01:56:03;;;;;;;16.55;2.75;;;3.30;99.90;;;;;;4993093;28;20042;-74
2022/03/19 01:58:29;;;;;;;11.60;2.22;;;3.20;99.90;;;;;;5007962;28;20406;-73
2022/03/19 02:00:56;;;;;;;16.70;2.90;;;3.20;99.90;;;;;;5009340;28;20557;-74
2022/03/19 02:03:23;;;;;;;18.35;3.17;;;3.20;99.90;;;;;;5003839;28;20100;-74
2022/03/19 02:05:48;;;;;;;12.18;2.75;;;3.20;99.90;;;;;;4978841;28;20057;-74
2022/03/19 02:08:18;;;;;;;16.40;2.90;;;3.20;99.90;;;;;;4970224;28;20046;-74
2022/03/19 02:10:43;;;;;;;13.30;2.53;;;3.20;99.90;;;;;;4996693;28;20104;-74
2022/03/19 02:13:09;;;;;;;15.57;2.65;;;3.20;99.90;;;;;;4999724;28;20450;-73
2022/03/19 02:15:35;;;;;;;16.00;2.40;;;3.10;99.90;;;;;;5000965;28;20069;-74
2022/03/19 02:18:01;;;;;;;18.50;3.05;;;3.10;99.90;;;;;;4996330;28;20482;-73
2022/03/19 02:20:31;;;;;;;11.48;2.53;;;3.10;99.90;;;;;;4973024;28;20120;-74
2022/03/19 02:25:40;;;;;;;15.00;2.88;;;3.10;99.90;;;;;;4992624;28;20390;-74
2022/03/19 02:28:06;;;;;;;19.83;2.42;;;3.10;99.90;;;;;;4999271;28;20117;-73
2022/03/19 02:30:33;;;;;;;13.05;2.40;;;3.10;99.90;;;;;;4981036;28;20057;-74
2022/03/19 02:33:00;;;;;;;16.48;2.60;;;3.10;99.90;;;;;;4982125;28;20512;-74
2022/03/19 02:35:26;;;;;;;16.73;3.33;;;3.10;99.90;;;;;;4998002;28;20117;-74
2022/03/19 02:37:51;;;;;;;21.15;3.13;;;3.10;99.90;;;;;;4976583;28;20038;-74
2022/03/19 02:40:20;;;;;;;17.58;3.22;;;3.10;99.90;;;;;;4978954;28;20042;-74
2022/03/19 02:42:51;;;;;;;17.70;3.13;;;3.10;99.90;;;;;;4995214;28;20057;-74
2022/03/19 02:45:18;;;;;;;16.25;2.88;;;3.10;99.90;;;;;;4974141;28;20038;-74
2022/03/19 02:47:59;;;;;;;13.75;2.80;;;3.10;99.90;;;;;;4974787;28;20049;-74
2022/03/19 02:50:27;;;;;;;18.23;3.55;;;3.10;99.90;;;;;;4966673;28;20430;-74
2022/03/19 02:52:53;;;;;;;15.63;2.75;;;3.00;99.90;;;;;;4974969;28;20052;-73
2022/03/19 02:55:19;;;;;;;16.73;2.97;;;3.00;99.90;;;;;;4998274;28;20044;-74
2022/03/19 02:57:44;;;;;;;19.73;2.90;;;3.00;99.90;;;;;;4982553;28;20173;-74
2022/03/19 03:00:10;;;;;;;15.80;3.08;;;3.00;99.90;;;;;;4994699;28;20509;-73
2022/03/19 03:02:36;;;;;;;15.77;3.55;;;3.00;99.90;;;;;;4982845;28;20092;-74
2022/03/19 03:05:02;;;;;;;15.35;2.78;;;3.00;99.90;;;;;;4988690;28;20057;-73
2022/03/19 03:07:27;;;;;;;13.85;3.15;;;3.00;99.90;;;;;;5008087;28;20497;-74
2022/03/19 03:09:53;;;;;;;21.10;3.38;;;3.00;99.90;;;;;;5007978;28;20049;-74
2022/03/19 03:12:19;;;;;;;19.92;3.38;;;3.00;99.90;;;;;;4996915;28;20581;-73
2022/03/19 03:14:44;;;;;;;14.35;2.67;;;3.00;99.90;;;;;;5007063;28;20037;-73
2022/03/19 03:17:10;;;;;;;13.90;3.22;;;3.00;99.90;;;;;;4996242;28;20132;-73
2022/03/19 03:19:36;;;;;;;22.33;3.83;;;3.00;99.90;;;;;;4995362;28;20101;-73
2022/03/19 03:22:02;;;;;;;19.73;3.85;;;2.90;99.90;;;;;;4999037;28;20504;-72
2022/03/19 03:24:29;;;;;;;13.77;3.28;;;2.90;99.90;;;;;;4997354;28;20057;-74
2022/03/19 03:26:55;;;;;;;20.77;3.95;;;2.90;99.90;;;;;;4994936;28;20640;-74
2022/03/19 03:29:20;;;;;;;18.15;3.85;;;2.90;99.90;;;;;;4996897;28;20029;-75
2022/03/19 03:31:46;;;;;;;18.35;3.28;;;2.80;99.90;;;;;;4995674;28;20096;-74
2022/03/19 03:34:12;;;;;;;23.45;3.33;;;2.90;99.90;;;;;;5006568;28;20045;-74
2022/03/19 03:36:38;;;;;;;17.92;2.95;;;2.80;99.90;;;;;;5000685;28;20049;-74
2022/03/19 03:39:03;;;;;;;15.82;4.00;;;2.90;99.90;;;;;;4991367;28;20489;-73
2022/03/19 03:41:29;;;;;;;29.40;3.88;;;2.90;99.90;;;;;;5009490;28;20133;-73
2022/03/19 03:43:55;;;;;;;18.17;3.75;;;2.90;99.90;;;;;;5004636;28;20042;-73
2022/03/19 03:46:20;;;;;;;20.13;3.65;;;2.90;99.90;;;;;;4988549;28;21232;-74
2022/03/19 03:48:46;;;;;;;19.02;2.97;;;2.80;99.90;;;;;;4995501;28;20484;-74
2022/03/19 03:51:13;;;;;;;21.33;3.60;;;2.80;99.90;;;;;;4990432;28;20053;-73
2022/03/19 03:53:39;;;;;;;14.27;3.85;;;2.90;99.90;;;;;;5006050;28;20030;-73
2022/03/19 03:56:05;;;;;;;10.73;3.28;;;2.80;99.90;;;;;;5013837;28;20049;-73
2022/03/19 03:58:32;;;;;;;16.98;5.00;;;2.80;99.90;;;;;;4988290;28;20096;-72
2022/03/19 04:00:58;;;;;;;21.65;3.72;;;2.80;99.90;;;;;;5012170;28;20111;-74
2022/03/19 04:03:23;;;;;;;18.20;4.07;;;2.80;99.90;;;;;;4993077;28;20493;-73
2022/03/19 04:05:49;;;;;;;14.40;3.38;;;2.70;99.90;;;;;;5012441;28;20076;-74
2022/03/19 04:08:15;;;;;;;19.95;4.10;;;2.80;99.90;;;;;;5003332;28;20041;-73
2022/03/19 04:10:41;;;;;;;16.33;4.05;;;2.80;99.90;;;;;;5011758;28;20042;-73
2022/03/19 04:13:07;;;;;;;13.77;3.67;;;2.80;99.90;;;;;;4988551;28;21509;-73
2022/03/19 04:15:32;;;;;;;15.88;4.43;;;2.80;99.90;;;;;;4991163;28;20438;-73
2022/03/19 04:17:58;;;;;;;19.50;4.13;;;2.80;99.90;;;;;;4994752;28;20513;-73
2022/03/19 04:20:25;;;;;;;21.10;4.38;;;2.70;99.90;;;;;;5012910;28;20038;-73
2022/03/19 04:22:51;;;;;;;18.75;4.95;;;2.70;99.90;;;;;;4994988;28;20034;-73
2022/03/19 04:25:21;;;;;;;18.63;4.93;;;2.70;99.90;;;;;;5009325;28;20037;-74
2022/03/19 04:27:52;;;;;;;27.30;6.47;;;2.70;99.90;;;;;;4979769;28;20072;-73
2022/03/19 04:30:19;;;;;;;33.60;6.47;;;2.70;99.90;;;;;;5018969;28;20034;-73
2022/03/19 04:32:47;;;;;;;31.50;7.97;;;2.70;99.90;;;;;;4995512;28;20049;-74
2022/03/19 04:38:11;;;;;;;30.60;6.22;;;2.60;99.90;;;;;;5013598;28;20046;-73
2022/03/19 04:40:37;;;;;;;30.88;6.75;;;2.60;99.90;;;;;;5000909;28;20034;-73
2022/03/19 04:43:03;;;;;;;37.60;7.18;;;2.60;99.90;;;;;;4989671;28;20092;-72
2022/03/19 04:45:29;;;;;;;31.40;6.60;;;2.60;99.90;;;;;;5014816;28;20049;-73
2022/03/19 04:47:55;;;;;;;17.65;5.03;;;2.60;99.90;;;;;;4989633;28;20062;-73
2022/03/19 04:50:21;;;;;;;23.15;6.13;;;2.60;99.90;;;;;;5015024;28;20046;-73
2022/03/19 04:52:48;;;;;;;21.27;5.22;;;2.70;99.90;;;;;;5013049;28;20058;-73
2022/03/19 04:55:14;;;;;;;25.55;4.30;;;2.70;99.90;;;;;;4994934;28;20108;-74
2022/03/19 04:57:40;;;;;;;24.17;4.88;;;2.70;99.90;;;;;;4992182;28;20045;-72
2022/03/19 05:00:07;;;;;;;22.67;5.25;;;2.70;99.90;;;;;;5018002;28;20544;-73
2022/03/19 05:02:33;;;;;;;20.83;5.43;;;2.60;99.90;;;;;;4994050;28;20080;-74
2022/03/19 05:05:00;;;;;;;21.55;6.50;;;2.60;99.90;;;;;;5014720;28;20037;-73
2022/03/19 05:07:26;;;;;;;20.38;5.80;;;2.60;99.90;;;;;;5018559;28;20057;-73
2022/03/19 05:12:50;;;;;;;19.15;6.45;;;2.60;99.90;;;;;;4946758;28;20065;-73
2022/03/19 05:15:16;;;;;;;21.98;6.57;;;2.70;99.90;;;;;;5006277;28;20592;-73
2022/03/19 05:17:43;;;;;;;20.13;5.25;;;2.70;99.90;;;;;;5015675;28;20034;-73
2022/03/19 05:20:11;;;;;;;21.60;5.53;;;2.70;99.90;;;;;;5015695;28;20069;-73
2022/03/19 05:22:37;;;;;;;21.20;5.75;;;2.80;99.90;;;;;;5014623;28;20061;-73
2022/03/19 05:25:04;;;;;;;26.75;5.82;;;2.90;99.90;;;;;;5010768;28;20092;-73
2022/03/19 05:27:30;;;;;;;16.23;5.50;;;2.90;99.90;;;;;;4993833;28;20490;-74
2022/03/19 05:29:57;;;;;;;26.30;5.32;;;2.90;99.90;;;;;;5003130;28;20052;-74
2022/03/19 05:32:23;;;;;;;21.92;5.22;;;2.90;99.90;;;;;;4998879;28;20111;-74
2022/03/19 05:34:49;;;;;;;23.42;5.13;;;2.90;99.90;;;;;;4996046;28;20046;-74
2022/03/19 05:37:16;;;;;;;23.05;6.32;;;3.00;99.90;;;;;;5001319;28;20041;-74
2022/03/19 05:39:43;;;;;;;22.50;6.13;;;3.00;99.90;;;;;;5008934;28;20049;-74
2022/03/19 05:42:09;;;;;;;24.30;5.10;;;3.00;99.90;;;;;;5013619;28;20072;-75
2022/03/19 05:44:35;;;;;;;22.00;4.63;;;3.00;99.90;;;;;;5013528;28;20042;-75
2022/03/19 05:47:01;;;;;;;17.65;5.47;;;3.10;99.90;;;;;;4994046;28;20100;-73
2022/03/19 05:49:28;;;;;;;20.10;5.15;;;3.00;99.90;;;;;;5018373;28;20072;-75
2022/03/19 05:51:55;;;;;;;23.85;6.75;;;3.10;99.90;;;;;;5017894;28;20053;-74
2022/03/19 05:54:21;;;;;;;21.08;5.32;;;3.10;99.90;;;;;;5016648;28;20473;-74
2022/03/19 05:56:47;;;;;;;22.40;5.97;;;3.10;99.90;;;;;;5009501;28;20095;-75
2022/03/19 05:59:12;;;;;;;22.33;5.75;;;3.10;99.90;;;;;;4992961;28;20034;-74
2022/03/19 06:01:41;;;;;;;26.58;5.60;;;3.10;99.90;;;;;;4990261;28;20054;-74
2022/03/19 06:04:08;;;;;;;22.88;6.78;;;3.20;99.90;;;;;;5014791;28;20426;-73
2022/03/19 06:06:34;;;;;;;27.92;6.07;;;3.20;99.90;;;;;;5011364;28;20401;-75
2022/03/19 06:09:00;;;;;;;21.45;6.13;;;3.20;99.90;;;;;;4993584;28;20512;-74
2022/03/19 06:11:25;;;;;;;16.95;5.43;;;3.20;99.90;;;;;;5012599;28;20038;-74
2022/03/19 06:13:51;;;;;;;19.88;6.20;;;3.20;99.90;;;;;;4991285;28;20065;-74
2022/03/19 06:16:17;;;;;;;16.63;5.88;;;3.20;99.90;;;;;;5012932;28;20076;-74
2022/03/19 06:18:46;;;;;;;25.50;6.28;;;3.20;99.90;;;;;;4989642;28;20413;-72
2022/03/19 06:21:12;;;;;;;25.63;7.10;;;3.20;99.90;;;;;;5007539;28;20049;-74
2022/03/19 06:23:37;;;;;;;18.77;6.30;;;3.20;99.90;;;;;;5007662;28;20042;-73
2022/03/19 06:26:03;;;;;;;21.15;5.72;;;3.20;99.90;;;;;;5009272;28;20050;-73
2022/03/19 06:28:29;;;;;;;20.90;5.70;;;3.30;99.90;;;;;;4991157;28;20049;-74
2022/03/19 06:30:55;;;;;;;23.73;7.88;;;3.30;99.90;;;;;;5010433;28;20057;-74
2022/03/19 06:33:20;;;;;;;22.00;8.32;;;3.40;99.90;;;;;;4991393;28;20056;-73
2022/03/19 06:38:30;;;;;;;22.58;6.30;;;3.50;99.90;;;;;;5008777;28;20049;-73
2022/03/19 06:40:58;;;;;;;23.55;6.65;;;3.50;99.90;;;;;;4993935;28;20044;-73
2022/03/19 06:43:24;;;;;;;19.67;6.75;;;3.60;99.90;;;;;;4990443;28;20069;-74
2022/03/19 06:45:50;;;;;;;23.65;7.93;;;3.70;99.90;;;;;;5004694;28;20058;-73
2022/03/19 06:48:16;;;;;;;23.77;7.22;;;3.70;99.90;;;;;;5007583;28;20051;-74
2022/03/19 06:50:42;;;;;;;17.33;7.68;;;3.90;99.90;;;;;;5007946;28;20042;-73
2022/03/19 06:53:07;;;;;;;19.40;6.82;;;3.90;99.90;;;;;;5006935;28;20100;-74
2022/03/19 06:55:33;;;;;;;22.05;7.60;;;4.10;99.90;;;;;;4993032;28;20049;-74
2022/03/19 06:57:59;;;;;;;22.90;7.00;;;4.10;99.90;;;;;;4987160;28;20046;-73
2022/03/19 07:00:26;;;;;;;22.17;6.32;;;4.20;99.90;;;;;;5009257;28;21580;-74
2022/03/19 07:02:54;;;;;;;19.35;6.47;;;4.30;99.90;;;;;;4993558;28;20405;-74
2022/03/19 07:05:20;;;;;;;20.52;7.28;;;4.50;99.90;;;;;;4986857;28;20045;-73
2022/03/19 07:07:46;;;;;;;19.45;7.90;;;4.60;99.90;;;;;;5004583;28;20475;-74
2022/03/19 07:10:13;;;;;;;19.20;6.72;;;4.70;99.90;;;;;;5003430;28;20053;-75
2022/03/19 07:12:46;;;;;;;24.52;6.60;;;4.80;99.90;;;;;;5004145;28;20042;-73
2022/03/19 07:15:13;;;;;;;;;;;4.90;99.90;;;;;;5002337;28;20057;-73
2022/03/19 07:17:39;;;;;;;20.40;6.72;;;5.00;99.90;;;;;;5003798;28;20008;-73
2022/03/19 07:20:07;;;;;;;21.92;7.40;;;5.10;99.90;;;;;;5004319;28;20517;-73
2022/03/19 07:22:53;;;;;;;19.33;6.43;;;5.20;99.90;;;;;;4985463;28;20137;-73
2022/03/19 07:25:20;;;;;;;19.42;5.90;;;5.30;99.90;;;;;;5001821;28;20461;-74
2022/03/19 07:27:46;;;;;;;16.48;5.70;;;5.40;99.90;;;;;;4999174;28;20140;-73
2022/03/19 07:30:13;;;;;;;19.25;5.93;;;5.50;99.90;;;;;;5001864;28;20037;-72
2022/03/19 07:32:39;;;;;;;22.85;6.85;;;5.60;99.90;;;;;;5003578;28;20052;-72
2022/03/19 07:35:06;;;;;;;21.55;5.40;;;5.80;99.90;;;;;;4985329;28;20045;-74
2022/03/19 07:37:33;;;;;;;21.42;6.13;;;5.90;99.90;;;;;;5002877;28;20136;-73
2022/03/19 07:39:59;;;;;;;19.27;5.70;;;5.90;99.90;;;;;;5004688;28;20050;-74
2022/03/19 07:42:25;;;;;;;14.40;5.25;;;6.10;99.90;;;;;;4985359;28;21774;-74
2022/03/19 07:44:51;;;;;;;20.08;6.38;;;6.20;99.90;;;;;;5004862;28;20050;-74
2022/03/19 07:47:17;;;;;;;20.45;6.43;;;6.30;99.90;;;;;;5006626;28;20045;-74
2022/03/19 07:49:44;;;;;;;14.98;5.75;;;6.30;99.90;;;;;;5010713;28;20481;-74
2022/03/19 07:52:10;;;;;;;19.85;6.55;;;6.40;99.90;;;;;;4990139;28;21941;-74
2022/03/19 07:54:36;;;;;;;18.13;6.50;;;6.50;99.90;;;;;;4981605;28;20407;-73
2022/03/19 07:57:10;;;;;;;19.75;5.93;;;6.60;99.90;;;;;;4986553;28;20052;-74
2022/03/19 07:59:37;;;;;;;17.77;5.55;;;6.70;99.90;;;;;;4982844;28;20461;-72
2022/03/19 08:02:04;;;;;;;16.70;5.90;;;6.80;99.90;;;;;;5003531;28;20497;-74
2022/03/19 08:04:29;;;;;;;14.65;6.47;;;6.90;99.90;;;;;;5006889;28;20064;-73
2022/03/19 08:06:55;;;;;;;18.38;7.38;;;6.90;99.90;;;;;;5006915;28;20442;-70
2022/03/19 08:09:22;;;;;;;15.98;5.43;;;7.00;99.90;;;;;;5013546;28;20052;-70
2022/03/19 08:11:49;;;;;;;16.02;5.43;;;7.10;99.90;;;;;;4992091;28;20042;-73
2022/03/19 08:14:15;;;;;;;19.00;6.25;;;7.20;99.90;;;;;;5009807;28;20042;-73
2022/03/19 08:16:42;;;;;;;18.85;5.95;;;7.30;99.90;;;;;;4987408;28;20053;-74
2022/03/19 08:19:09;;;;;;;19.30;5.93;;;7.40;99.90;;;;;;4988438;28;20084;-77
2022/03/19 08:21:34;;;;;;;22.30;5.63;;;7.50;99.90;;;;;;4987637;28;20053;-77
2022/03/19 08:24:03;;;;;;;16.48;5.80;;;7.60;99.90;;;;;;5007972;28;20038;-76
2022/03/19 08:26:29;;;;;;;21.90;6.00;;;7.70;99.90;;;;;;5010373;28;20073;-76
2022/03/19 08:28:54;;;;;;;14.10;5.55;;;7.80;99.90;;;;;;5010702;28;20084;-76
2022/03/19 08:31:21;;;;;;;18.27;5.63;;;7.80;99.90;;;;;;5007763;28;20057;-77
2022/03/19 08:33:48;;;;;;;16.83;5.03;;;7.90;99.90;;;;;;4990321;28;20050;-76
2022/03/19 08:36:13;;;;;;;19.67;6.07;;;8.00;99.90;;;;;;5009880;28;20318;-75
2022/03/19 08:41:23;;;;;;;13.88;5.32;;;8.20;99.90;;;;;;5007887;28;20498;-76
2022/03/19 08:43:49;;;;;;;13.70;5.00;;;8.30;99.90;;;;;;4988994;28;20046;-75
2022/03/19 08:46:15;;;;;;;18.02;5.38;;;8.40;99.90;;;;;;4995168;28;20045;-75
2022/03/19 08:48:40;;;;;;;16.70;4.80;;;8.50;99.90;;;;;;4997566;28;20053;-80
2022/03/19 08:53:50;;;;;;;15.00;4.15;;;8.60;99.90;;;;;;5012438;28;20160;-71
2022/03/19 08:56:16;;;;;;;14.05;4.53;;;8.70;99.90;;;;;;5011282;28;20613;-73
2022/03/19 08:58:42;;;;;;;17.98;4.50;;;8.70;99.90;;;;;;5011769;28;20298;-73
2022/03/19 09:01:07;;;;;;;15.75;4.55;;;8.70;99.90;;;;;;5006764;28;20562;-73
2022/03/19 09:03:33;;;;;;;15.15;4.60;;;8.70;99.90;;;;;;5014505;28;20583;-72
2022/03/19 09:06:00;;;;;;;13.63;4.15;;;8.80;99.90;;;;;;4985780;28;20081;-72
2022/03/19 09:08:26;;;;;;;13.95;4.18;;;8.90;99.90;;;;;;5018368;28;20121;-71
2022/03/19 09:10:52;;;;;;;14.05;4.63;;;8.90;99.90;;;;;;5003336;28;20513;-72
2022/03/19 09:13:18;;;;;;;15.23;4.20;;;9.00;99.90;;;;;;5009818;28;20128;-72
2022/03/19 09:15:44;;;;;;;13.77;4.68;;;9.10;99.90;;;;;;5010989;28;20157;-72
2022/03/19 09:18:09;;;;;;;13.95;4.78;;;9.20;99.90;;;;;;5009671;28;20119;-72
2022/03/19 09:20:35;;;;;;;14.90;3.38;;;9.20;99.90;;;;;;4998727;28;20537;-72
2022/03/19 09:23:02;;;;;;;13.30;3.67;;;9.20;99.90;;;;;;4995981;28;20324;-72
2022/03/19 09:25:28;;;;;;;13.48;4.80;;;9.30;99.90;;;;;;5004322;28;20038;-72
2022/03/19 09:27:53;;;;;;;13.63;3.75;;;9.30;99.90;;;;;;5014191;28;20154;-71
2022/03/19 09:30:19;;;;;;;9.75;2.97;;;9.40;99.90;;;;;;4992029;28;20064;-72
2022/03/19 09:32:45;;;;;;;12.30;3.60;;;9.50;99.90;;;;;;4998502;28;20104;-72
2022/03/19 09:35:11;;;;;;;10.05;3.42;;;9.60;99.90;;;;;;5012533;28;20048;-72
2022/03/19 09:37:37;;;;;;;15.25;4.13;;;9.60;99.90;;;;;;5008784;28;20786;-73
2022/03/19 09:40:04;;;;;;;10.32;2.90;;;9.70;99.90;;;;;;5011697;28;20121;-71
2022/03/19 09:42:31;;;;;;;12.32;3.30;;;9.70;99.90;;;;;;5008971;28;20578;-71
2022/03/19 09:44:58;;;;;;;14.10;3.65;;;9.80;99.90;;;;;;5011303;28;20079;-71
2022/03/19 09:47:26;;;;;;;10.55;2.45;;;9.80;99.90;;;;;;5017243;28;20046;-71
2022/03/19 09:49:51;;;;;;;12.75;3.40;;;9.80;99.90;;;;;;5011131;28;20045;-72
2022/03/19 09:52:20;;;;;;;13.77;2.75;;;9.80;99.90;;;;;;4993802;28;20102;-71
2022/03/19 09:54:46;;;;;;;13.25;3.33;;;9.90;99.90;;;;;;5020746;28;20069;-72
2022/03/19 09:57:12;;;;;;;12.77;3.25;;;9.90;99.90;;;;;;5001349;28;20120;-72
2022/03/19 09:59:38;;;;;;;8.77;2.85;;;10.00;99.90;;;;;;4996615;28;20510;-72
2022/03/19 10:02:12;;;;;;;10.60;3.05;;;10.00;99.90;;;;;;5010608;28;20052;-72
2022/03/19 10:04:40;;;;;;;9.30;2.50;;;10.10;99.90;;;;;;4996622;28;20069;-72
2022/03/19 10:09:50;;;;;;;10.27;2.95;;;10.20;99.90;;;;;;5008941;28;20100;-71
2022/03/19 10:12:28;;;;;;;10.45;2.28;;;10.20;99.90;;;;;;4992379;28;20455;-72
2022/03/19 10:14:55;;;;;;;8.48;2.38;;;10.20;99.90;;;;;;4982109;28;20456;-71
2022/03/19 10:17:32;;;;;;;9.70;2.83;;;10.30;99.90;;;;;;5020025;28;20053;-72
2022/03/19 10:20:09;;;;;;;6.72;2.70;;;10.30;99.90;;;;;;4988681;28;20046;-72
2022/03/19 10:22:42;;;;;;;12.75;3.47;;;10.40;99.90;;;;;;4997706;28;20128;-70
2022/03/19 10:25:11;;;;;;;12.73;3.38;;;10.50;99.90;;;;;;5014828;28;20050;-71
2022/03/19 10:27:43;;;;;;;8.70;2.85;;;10.70;99.90;;;;;;5014726;28;20049;-72
2022/03/19 10:30:24;;;;;;;15.13;3.83;;;10.60;99.90;;;;;;4991633;28;20056;-72
2022/03/19 10:32:56;;;;;;;8.15;2.95;;;10.70;99.90;;;;;;5009730;28;20046;-73
2022/03/19 10:35:34;;;;;;;12.68;3.30;;;10.70;99.90;;;;;;4995278;28;20389;-70
2022/03/19 10:38:03;;;;;;;12.05;3.30;;;10.80;99.90;;;;;;5009043;28;20050;-70
2022/03/19 10:40:55;;;;;;;10.68;2.92;;;10.90;99.90;;;;;;5011698;28;20121;-71
2022/03/19 10:43:22;;;;;;;12.05;2.80;;;10.90;99.90;;;;;;4984586;28;20049;-73
2022/03/19 10:45:51;;;;;;;8.90;2.60;;;11.00;99.90;;;;;;4989682;28;20052;-70
2022/03/19 10:48:21;;;;;;;6.97;2.17;;;11.00;99.00;;;;;;4993472;28;20195;-67
2022/03/19 10:50:48;;;;;;;9.45;2.50;;;11.00;99.20;;;;;;5010654;28;20037;-68
2022/03/19 10:53:14;;;;;;;7.45;2.90;;;11.00;99.00;;;;;;4992137;28;20050;-68
2022/03/19 10:55:40;;;;;;;7.18;3.15;;;11.00;99.90;;;;;;4991553;28;20064;-68
2022/03/19 10:58:06;;;;;;;9.88;2.45;;;11.10;99.90;;;;;;4988765;28;20139;-68
2022/03/19 11:00:34;;;;;;;13.43;2.92;;;11.20;99.50;;;;;;4992162;28;20038;-68
2022/03/19 11:03:06;;;;;;;11.75;2.55;;;11.20;99.30;;;;;;4975562;28;20100;-67
2022/03/19 11:05:34;;;;;;;7.68;2.60;;;11.30;99.50;;;;;;4985348;28;20065;-69
2022/03/19 11:08:02;;;;;;;6.68;2.45;;;11.40;97.40;;;;;;5009608;28;20096;-70
2022/03/19 11:10:29;;;;;;;7.30;2.33;;;11.40;96.70;;;;;;5007016;28;20042;-68
2022/03/19 11:12:59;;;;;;;6.25;2.38;;;11.50;94.80;;;;;;5011706;28;20050;-68
2022/03/19 11:15:27;;;;;;;8.48;2.83;;;11.50;95.80;;;;;;5004526;28;20037;-72
2022/03/19 11:17:56;;;;;;;8.70;2.70;;;11.50;97.80;;;;;;5007371;28;20456;-73
2022/03/19 11:20:22;;;;;;;7.93;2.97;;;11.50;98.40;;;;;;4999762;28;20115;-73
2022/03/19 11:22:52;;;;;;;7.72;2.20;;;11.60;99.40;;;;;;4998003;28;20096;-74
2022/03/19 11:25:26;;;;;;;10.15;2.72;;;11.60;97.90;;;;;;4993646;28;20049;-73
2022/03/19 11:28:01;;;;;;;9.25;2.78;;;11.70;99.30;;;;;;5007597;28;20065;-74
2022/03/19 11:30:36;;;;;;;7.18;2.30;;;11.80;96.20;;;;;;4985940;28;20038;-75
2022/03/19 11:33:06;;;;;;;11.73;2.28;;;11.80;95.30;;;;;;4990016;28;20069;-73
2022/03/19 11:35:34;;;;;;;7.80;2.22;;;11.80;95.40;;;;;;4987881;28;20057;-73
2022/03/19 11:38:11;;;;;;;7.32;2.10;;;11.80;94.60;;;;;;4986639;28;20046;-74
2022/03/19 11:40:47;;;;;;;8.43;2.30;;;11.90;94.10;;;;;;5008876;28;20076;-75
2022/03/19 11:43:35;;;;;;;9.52;2.55;;;11.80;92.70;;;;;;5001352;28;20045;-75
2022/03/19 11:46:03;;;;;;;7.53;2.80;;;12.00;95.30;;;;;;5002353;28;20045;-73
2022/03/19 11:48:35;;;;;;;7.40;2.50;;;12.10;94.20;;;;;;5007741;28;20048;-76
2022/03/19 11:51:25;;;;;;;11.50;3.28;;;12.10;94.10;;;;;;5007395;28;20690;-75
2022/03/19 11:53:55;;;;;;;10.45;3.13;;;12.00;94.70;;;;;;5007758;28;20041;-73
2022/03/19 11:56:25;;;;;;;8.98;3.13;;;11.90;94.00;;;;;;4987238;28;20446;-73
2022/03/19 11:58:52;;;;;;;7.78;2.90;;;12.00;95.30;;;;;;4988488;28;20050;-75
2022/03/19 12:01:18;;;;;;;9.40;2.97;;;12.10;95.50;;;;;;4990780;28;20076;-74
2022/03/19 12:04:05;;;;;;;7.93;3.10;;;12.10;93.30;;;;;;5008921;28;20104;-75
2022/03/19 12:06:33;;;;;;;11.15;2.88;;;12.10;93.00;;;;;;4990448;28;20046;-75
2022/03/19 12:08:59;;;;;;;7.80;2.10;;;12.10;92.70;;;;;;5007307;28;20528;-74
2022/03/19 12:11:25;;;;;;;6.85;2.40;;;12.20;92.90;;;;;;5007060;28;20513;-74
2022/03/19 12:13:51;;;;;;;7.95;2.10;;;12.10;91.70;;;;;;5004294;28;20037;-74
2022/03/19 12:16:46;;;;;;;11.38;2.65;;;12.10;91.00;;;;;;5003601;28;20069;-74
2022/03/19 12:19:12;;;;;;;6.65;1.80;;;12.20;90.80;;;;;;4981617;28;20069;-74
2022/03/19 12:21:41;;;;;;;11.15;2.45;;;12.10;88.60;;;;;;4989033;28;20490;-74
2022/03/19 12:24:07;;;;;;;10.35;1.80;;;12.10;87.10;;;;;;4987256;28;20100;-73
2022/03/19 12:26:38;;;;;;;5.70;1.83;;;12.20;83.20;;;;;;5003514;28;20066;-74
2022/03/19 12:29:06;;;;;;;5.05;1.95;;;12.20;80.60;;;;;;4990885;28;20088;-73
2022/03/19 12:31:38;;;;;;;11.25;2.25;;;12.30;83.80;;;;;;4998330;28;20048;-76
2022/03/19 12:34:05;;;;;;;5.53;2.17;;;12.30;83.40;;;;;;4976353;28;20046;-75
2022/03/19 12:36:31;;;;;;;9.27;2.20;;;12.30;82.80;;;;;;4986687;28;20054;-75
2022/03/19 12:39:03;;;;;;;6.45;2.28;;;12.30;84.80;;;;;;5002583;28;20452;-75
2022/03/19 12:41:31;;;;;;;7.22;2.22;;;12.40;87.30;;;;;;4994054;28;20045;-74
2022/03/19 12:44:05;;;;;;;10.65;2.50;;;12.50;87.60;;;;;;4987629;28;20116;-74
2022/03/19 12:46:36;;;;;;;7.43;2.22;;;12.50;87.70;;;;;;5009269;28;20076;-74
2022/03/19 12:49:09;;;;;;;8.25;1.90;;;12.50;86.90;;;;;;5006232;28;20045;-75
2022/03/19 12:51:36;;;;;;;;;;;12.40;85.00;;;;;;4991892;28;20436;-75
2022/03/19 12:54:17;;;;;;;7.85;2.35;;;12.40;86.20;;;;;;4993004;28;19921;-74
2022/03/19 12:56:42;;;;;;;6.05;1.60;;;12.30;82.90;;;;;;4995845;28;20526;-75
2022/03/19 12:59:25;;;;;;;5.88;2.08;;;12.40;86.60;;;;;;4998344;28;20057;-75
2022/03/19 13:01:52;;;;;;;4.85;1.60;;;12.30;82.00;;;;;;5008180;28;20064;-75
2022/03/19 13:04:31;;;;;;;5.53;1.63;;;12.30;81.50;;;;;;4996863;28;20061;-76
2022/03/19 13:06:58;;;;;;;4.85;1.40;;;12.30;84.80;;;;;;5007759;28;20134;-75